sensor_id;sensor_type;location;lat;lon;timestamp;temperature;humidity
40670;DHT22;26355;45.528;9.234;2023-05-02T00:00:08;16.70;99.90
40670;DHT22;26355;45.528;9.234;2023-05-02T00:02:34;16.70;99.90
40670;DHT22;26355;45.528;9.234;2023-05-02T00:05:00;16.70;99.90
40670;DHT22;26355;45.528;9.234;2023-05-02T00:07:26;16.70;99.90
40670;DHT22;26355;45.528;9.234;2023-05-02T00:09:52;16.80;99.90
40670;DHT22;26355;45.528;9.234;2023-05-02T00:12:17;16.70;99.90
40670;DHT22;26355;45.528;9.234;2023-05-02T00:14:43;16.70;99.90
40670;DHT22;26355;45.528;9.234;2023-05-02T00:17:15;16.60;99.90
40670;DHT22;26355;45.528;9.234;2023-05-02T00:19:41;16.70;99.90
40670;DHT22;26355;45.528;9.234;2023-05-02T00:22:07;16.70;99.90
40670;DHT22;26355;45.528;9.234;2023-05-02T00:24:32;16.80;99.90
40670;DHT22;26355;45.528;9.234;2023-05-02T00:26:58;16.80;99.90
40670;DHT22;26355;45.528;9.234;2023-05-02T00:29:26;16.70;99.90
40670;DHT22;26355;45.528;9.234;2023-05-02T00:31:52;16.70;99.90
40670;DHT22;26355;45.528;9.234;2023-05-02T00:34:17;16.70;99.90
40670;DHT22;26355;45.528;9.234;2023-05-02T00:36:43;16.70;99.90
40670;DHT22;26355;45.528;9.234;2023-05-02T00:39:08;16.60;99.90
40670;DHT22;26355;45.528;9.234;2023-05-02T00:41:35;16.70;99.90
40670;DHT22;26355;45.528;9.234;2023-05-02T00:44:00;16.70;99.90
40670;DHT22;26355;45.528;9.234;2023-05-02T00:46:26;16.70;99.90
40670;DHT22;26355;45.528;9.234;2023-05-02T00:48:52;16.70;99.90
40670;DHT22;26355;45.528;9.234;2023-05-02T00:51:18;16.60;99.90
40670;DHT22;26355;45.528;9.234;2023-05-02T00:53:44;16.60;99.90
40670;DHT22;26355;45.528;9.234;2023-05-02T00:56:10;16.60;99.90
40670;DHT22;26355;45.528;9.234;2023-05-02T00:58:39;16.60;99.90
40670;DHT22;26355;45.528;9.234;2023-05-02T01:01:17;16.50;99.90
40670;DHT22;26355;45.528;9.234;2023-05-02T01:09:21;16.70;99.90
40670;DHT22;26355;45.528;9.234;2023-05-02T01:14:38;16.80;99.90
40670;DHT22;26355;45.528;9.234;2023-05-02T01:17:08;16.80;99.90
40670;DHT22;26355;45.528;9.234;2023-05-02T01:19:38;16.80;99.90
40670;DHT22;26355;45.528;9.234;2023-05-02T01:22:07;16.80;99.90
40670;DHT22;26355;45.528;9.234;2023-05-02T01:24:51;16.80;99.90
40670;DHT22;26355;45.528;9.234;2023-05-02T01:27:43;16.80;99.90
40670;DHT22;26355;45.528;9.234;2023-05-02T01:30:14;16.80;99.90
40670;DHT22;26355;45.528;9.234;2023-05-02T01:32:45;16.90;99.90
40670;DHT22;26355;45.528;9.234;2023-05-02T01:35:14;16.80;99.90
40670;DHT22;26355;45.528;9.234;2023-05-02T01:37:42;16.80;99.90
40670;DHT22;26355;45.528;9.234;2023-05-02T01:40:09;16.60;99.90
40670;DHT22;26355;45.528;9.234;2023-05-02T01:42:36;16.80;99.90
40670;DHT22;26355;45.528;9.234;2023-05-02T01:45:03;16.70;99.90
40670;DHT22;26355;45.528;9.234;2023-05-02T01:47:32;16.80;99.90
40670;DHT22;26355;45.528;9.234;2023-05-02T01:50:05;16.70;99.90
40670;DHT22;26355;45.528;9.234;2023-05-02T01:52:32;16.70;99.90
40670;DHT22;26355;45.528;9.234;2023-05-02T01:54:59;16.80;99.90
40670;DHT22;26355;45.528;9.234;2023-05-02T01:57:25;16.70;99.90
40670;DHT22;26355;45.528;9.234;2023-05-02T01:59:54;16.70;99.90
40670;DHT22;26355;45.528;9.234;2023-05-02T02:02:23;16.70;99.90
40670;DHT22;26355;45.528;9.234;2023-05-02T02:04:52;16.70;99.90
40670;DHT22;26355;45.528;9.234;2023-05-02T02:07:18;16.70;99.90
40670;DHT22;26355;45.528;9.234;2023-05-02T02:09:44;16.70;99.90
40670;DHT22;26355;45.528;9.234;2023-05-02T02:12:30;16.70;99.90
40670;DHT22;26355;45.528;9.234;2023-05-02T02:15:02;16.70;99.90
40670;DHT22;26355;45.528;9.234;2023-05-02T02:17:39;16.70;99.90
40670;DHT22;26355;45.528;9.234;2023-05-02T02:20:09;16.80;99.90
40670;DHT22;26355;45.528;9.234;2023-05-02T02:22:40;16.70;99.90
40670;DHT22;26355;45.528;9.234;2023-05-02T02:25:09;16.70;99.90
40670;DHT22;26355;45.528;9.234;2023-05-02T02:27:39;16.70;99.90
40670;DHT22;26355;45.528;9.234;2023-05-02T02:30:07;16.50;99.90
40670;DHT22;26355;45.528;9.234;2023-05-02T02:32:32;16.60;99.90
40670;DHT22;26355;45.528;9.234;2023-05-02T02:34:58;16.60;99.90
40670;DHT22;26355;45.528;9.234;2023-05-02T02:37:34;16.70;99.90
40670;DHT22;26355;45.528;9.234;2023-05-02T02:40:12;16.60;99.90
40670;DHT22;26355;45.528;9.234;2023-05-02T02:42:51;16.50;99.90
40670;DHT22;26355;45.528;9.234;2023-05-02T02:50:59;16.50;99.90
40670;DHT22;26355;45.528;9.234;2023-05-02T02:53:57;16.40;99.90
40670;DHT22;26355;45.528;9.234;2023-05-02T02:56:29;16.50;99.90
40670;DHT22;26355;45.528;9.234;2023-05-02T02:59:09;16.40;99.90
40670;DHT22;26355;45.528;9.234;2023-05-02T03:01:39;16.40;99.90
40670;DHT22;26355;45.528;9.234;2023-05-02T03:04:07;16.50;99.90
40670;DHT22;26355;45.528;9.234;2023-05-02T03:06:34;16.40;99.90
40670;DHT22;26355;45.528;9.234;2023-05-02T03:09:00;16.40;99.90
40670;DHT22;26355;45.528;9.234;2023-05-02T03:11:26;16.40;99.90
40670;DHT22;26355;45.528;9.234;2023-05-02T03:13:52;16.40;99.90
40670;DHT22;26355;45.528;9.234;2023-05-02T03:18:52;16.40;99.90
40670;DHT22;26355;45.528;9.234;2023-05-02T03:21:18;16.40;99.90
40670;DHT22;26355;45.528;9.234;2023-05-02T03:23:43;16.40;99.90
40670;DHT22;26355;45.528;9.234;2023-05-02T03:26:09;16.50;99.90
40670;DHT22;26355;45.528;9.234;2023-05-02T03:28:35;16.40;99.90
40670;DHT22;26355;45.528;9.234;2023-05-02T03:31:00;16.40;99.90
40670;DHT22;26355;45.528;9.234;2023-05-02T03:33:26;16.40;99.90
40670;DHT22;26355;45.528;9.234;2023-05-02T03:35:52;16.40;99.90
40670;DHT22;26355;45.528;9.234;2023-05-02T03:38:18;16.40;99.90
40670;DHT22;26355;45.528;9.234;2023-05-02T03:40:43;16.40;99.90
40670;DHT22;26355;45.528;9.234;2023-05-02T03:43:09;16.40;99.90
40670;DHT22;26355;45.528;9.234;2023-05-02T03:45:35;16.50;99.90
40670;DHT22;26355;45.528;9.234;2023-05-02T03:48:01;16.40;99.90
40670;DHT22;26355;45.528;9.234;2023-05-02T03:50:27;16.40;99.90
40670;DHT22;26355;45.528;9.234;2023-05-02T03:52:53;16.40;99.90
40670;DHT22;26355;45.528;9.234;2023-05-02T03:55:18;16.50;99.90
40670;DHT22;26355;45.528;9.234;2023-05-02T03:57:44;16.50;99.90
40670;DHT22;26355;45.528;9.234;2023-05-02T04:00:10;16.50;99.90
40670;DHT22;26355;45.528;9.234;2023-05-02T04:02:36;16.40;99.90
40670;DHT22;26355;45.528;9.234;2023-05-02T04:05:01;16.40;99.90
40670;DHT22;26355;45.528;9.234;2023-05-02T04:07:27;16.40;99.90
40670;DHT22;26355;45.528;9.234;2023-05-02T04:09:52;16.40;99.90
40670;DHT22;26355;45.528;9.234;2023-05-02T04:12:18;16.50;99.90
40670;DHT22;26355;45.528;9.234;2023-05-02T04:14:44;16.50;99.90
40670;DHT22;26355;45.528;9.234;2023-05-02T04:17:09;16.40;99.90
40670;DHT22;26355;45.528;9.234;2023-05-02T04:19:35;16.40;99.90
40670;DHT22;26355;45.528;9.234;2023-05-02T04:22:01;16.60;99.90
40670;DHT22;26355;45.528;9.234;2023-05-02T04:24:27;16.50;99.90
40670;DHT22;26355;45.528;9.234;2023-05-02T04:26:53;16.60;99.90
40670;DHT22;26355;45.528;9.234;2023-05-02T04:29:19;16.60;99.90
40670;DHT22;26355;45.528;9.234;2023-05-02T04:31:45;16.50;99.90
40670;DHT22;26355;45.528;9.234;2023-05-02T04:34:10;16.40;99.90
40670;DHT22;26355;45.528;9.234;2023-05-02T04:36:36;16.50;99.90
40670;DHT22;26355;45.528;9.234;2023-05-02T04:39:02;16.40;99.90
40670;DHT22;26355;45.528;9.234;2023-05-02T04:41:29;16.40;99.90
40670;DHT22;26355;45.528;9.234;2023-05-02T04:43:54;16.50;99.90
40670;DHT22;26355;45.528;9.234;2023-05-02T04:46:20;16.40;99.90
40670;DHT22;26355;45.528;9.234;2023-05-02T04:48:45;16.50;99.90
40670;DHT22;26355;45.528;9.234;2023-05-02T04:51:11;16.40;99.90
40670;DHT22;26355;45.528;9.234;2023-05-02T04:53:37;16.30;99.90
40670;DHT22;26355;45.528;9.234;2023-05-02T04:56:03;16.40;99.90
40670;DHT22;26355;45.528;9.234;2023-05-02T04:58:29;16.30;99.90
40670;DHT22;26355;45.528;9.234;2023-05-02T05:00:54;16.40;99.90
40670;DHT22;26355;45.528;9.234;2023-05-02T05:03:21;16.40;99.90
40670;DHT22;26355;45.528;9.234;2023-05-02T05:05:46;16.40;99.90
40670;DHT22;26355;45.528;9.234;2023-05-02T05:08:12;16.50;99.90
40670;DHT22;26355;45.528;9.234;2023-05-02T05:10:37;16.40;99.90
40670;DHT22;26355;45.528;9.234;2023-05-02T05:13:05;16.40;99.90
40670;DHT22;26355;45.528;9.234;2023-05-02T05:15:31;16.40;99.90
40670;DHT22;26355;45.528;9.234;2023-05-02T05:17:57;16.40;99.90
40670;DHT22;26355;45.528;9.234;2023-05-02T05:20:23;16.50;99.90
40670;DHT22;26355;45.528;9.234;2023-05-02T05:22:48;16.50;99.90
40670;DHT22;26355;45.528;9.234;2023-05-02T05:25:14;16.40;99.90
40670;DHT22;26355;45.528;9.234;2023-05-02T05:27:40;16.50;99.90
40670;DHT22;26355;45.528;9.234;2023-05-02T05:30:06;16.40;99.90
40670;DHT22;26355;45.528;9.234;2023-05-02T05:32:33;16.30;99.90
40670;DHT22;26355;45.528;9.234;2023-05-02T05:34:59;16.30;99.90
40670;DHT22;26355;45.528;9.234;2023-05-02T05:37:25;16.30;99.90
40670;DHT22;26355;45.528;9.234;2023-05-02T05:39:50;16.30;99.90
40670;DHT22;26355;45.528;9.234;2023-05-02T05:42:16;16.30;99.90
40670;DHT22;26355;45.528;9.234;2023-05-02T05:44:41;16.30;99.90
40670;DHT22;26355;45.528;9.234;2023-05-02T05:47:07;16.30;99.90
40670;DHT22;26355;45.528;9.234;2023-05-02T05:49:32;16.30;99.90
40670;DHT22;26355;45.528;9.234;2023-05-02T05:52:01;16.30;99.90
40670;DHT22;26355;45.528;9.234;2023-05-02T05:54:26;16.40;99.90
40670;DHT22;26355;45.528;9.234;2023-05-02T05:56:52;16.40;99.90
40670;DHT22;26355;45.528;9.234;2023-05-02T05:59:18;16.40;99.90
40670;DHT22;26355;45.528;9.234;2023-05-02T06:01:43;16.30;99.90
40670;DHT22;26355;45.528;9.234;2023-05-02T06:04:09;16.40;99.90
40670;DHT22;26355;45.528;9.234;2023-05-02T06:06:34;16.50;99.90
40670;DHT22;26355;45.528;9.234;2023-05-02T06:09:00;16.60;99.90
40670;DHT22;26355;45.528;9.234;2023-05-02T06:11:26;16.50;99.90
40670;DHT22;26355;45.528;9.234;2023-05-02T06:13:52;16.60;99.90
40670;DHT22;26355;45.528;9.234;2023-05-02T06:16:18;16.50;99.90
40670;DHT22;26355;45.528;9.234;2023-05-02T06:18:44;16.60;99.90
40670;DHT22;26355;45.528;9.234;2023-05-02T06:21:10;16.60;99.90
40670;DHT22;26355;45.528;9.234;2023-05-02T06:23:36;16.70;99.90
40670;DHT22;26355;45.528;9.234;2023-05-02T06:26:03;16.80;99.90
40670;DHT22;26355;45.528;9.234;2023-05-02T06:28:29;16.80;99.90
40670;DHT22;26355;45.528;9.234;2023-05-02T06:31:00;16.90;99.90
40670;DHT22;26355;45.528;9.234;2023-05-02T06:33:27;16.80;99.90
40670;DHT22;26355;45.528;9.234;2023-05-02T06:35:53;16.90;99.90
40670;DHT22;26355;45.528;9.234;2023-05-02T06:38:18;16.90;99.90
40670;DHT22;26355;45.528;9.234;2023-05-02T06:40:44;16.90;99.90
40670;DHT22;26355;45.528;9.234;2023-05-02T06:43:10;16.90;99.90
40670;DHT22;26355;45.528;9.234;2023-05-02T06:45:36;17.00;99.90
40670;DHT22;26355;45.528;9.234;2023-05-02T06:48:02;17.00;99.90
40670;DHT22;26355;45.528;9.234;2023-05-02T06:50:28;17.00;99.90
40670;DHT22;26355;45.528;9.234;2023-05-02T06:52:54;17.00;99.90
40670;DHT22;26355;45.528;9.234;2023-05-02T06:55:20;17.00;99.90
40670;DHT22;26355;45.528;9.234;2023-05-02T06:57:46;16.80;99.90
40670;DHT22;26355;45.528;9.234;2023-05-02T07:00:12;17.10;99.90
40670;DHT22;26355;45.528;9.234;2023-05-02T07:02:38;17.10;99.90
40670;DHT22;26355;45.528;9.234;2023-05-02T07:05:03;17.20;99.90
40670;DHT22;26355;45.528;9.234;2023-05-02T07:07:29;17.20;99.90
40670;DHT22;26355;45.528;9.234;2023-05-02T07:09:55;17.30;99.90
40670;DHT22;26355;45.528;9.234;2023-05-02T07:12:20;17.20;99.90
40670;DHT22;26355;45.528;9.234;2023-05-02T07:14:46;17.40;99.90
40670;DHT22;26355;45.528;9.234;2023-05-02T07:17:12;17.40;99.90
40670;DHT22;26355;45.528;9.234;2023-05-02T07:19:37;17.40;99.90
40670;DHT22;26355;45.528;9.234;2023-05-02T07:22:03;17.60;99.90
40670;DHT22;26355;45.528;9.234;2023-05-02T07:24:29;17.50;99.90
40670;DHT22;26355;45.528;9.234;2023-05-02T07:26:54;17.60;99.90
40670;DHT22;26355;45.528;9.234;2023-05-02T07:29:20;17.60;99.90
40670;DHT22;26355;45.528;9.234;2023-05-02T07:31:45;17.70;99.90
40670;DHT22;26355;45.528;9.234;2023-05-02T07:34:11;17.60;99.90
40670;DHT22;26355;45.528;9.234;2023-05-02T07:36:37;17.70;99.90
40670;DHT22;26355;45.528;9.234;2023-05-02T07:39:03;17.70;99.90
40670;DHT22;26355;45.528;9.234;2023-05-02T07:41:28;17.80;99.90
40670;DHT22;26355;45.528;9.234;2023-05-02T07:43:54;17.70;99.90
40670;DHT22;26355;45.528;9.234;2023-05-02T07:46:22;17.80;99.90
40670;DHT22;26355;45.528;9.234;2023-05-02T07:48:47;17.70;99.90
40670;DHT22;26355;45.528;9.234;2023-05-02T07:51:13;17.70;99.90
40670;DHT22;26355;45.528;9.234;2023-05-02T07:53:39;17.70;99.90
40670;DHT22;26355;45.528;9.234;2023-05-02T07:56:04;17.90;99.90
40670;DHT22;26355;45.528;9.234;2023-05-02T07:58:31;17.80;99.90
40670;DHT22;26355;45.528;9.234;2023-05-02T08:00:57;17.90;99.90
40670;DHT22;26355;45.528;9.234;2023-05-02T08:03:22;17.90;99.90
40670;DHT22;26355;45.528;9.234;2023-05-02T08:05:48;18.00;99.90
40670;DHT22;26355;45.528;9.234;2023-05-02T08:08:14;18.00;99.90
40670;DHT22;26355;45.528;9.234;2023-05-02T08:10:39;18.10;99.90
40670;DHT22;26355;45.528;9.234;2023-05-02T08:13:05;18.10;99.90
40670;DHT22;26355;45.528;9.234;2023-05-02T08:15:30;18.00;99.90
40670;DHT22;26355;45.528;9.234;2023-05-02T08:17:56;18.20;99.90
40670;DHT22;26355;45.528;9.234;2023-05-02T08:20:22;18.10;99.90
40670;DHT22;26355;45.528;9.234;2023-05-02T08:22:47;18.20;99.90
40670;DHT22;26355;45.528;9.234;2023-05-02T08:25:13;18.20;99.90
40670;DHT22;26355;45.528;9.234;2023-05-02T08:27:39;18.20;99.90
40670;DHT22;26355;45.528;9.234;2023-05-02T08:30:05;18.20;99.90
40670;DHT22;26355;45.528;9.234;2023-05-02T08:32:31;18.20;99.90
40670;DHT22;26355;45.528;9.234;2023-05-02T08:34:57;18.30;99.90
40670;DHT22;26355;45.528;9.234;2023-05-02T08:37:22;18.30;99.90
40670;DHT22;26355;45.528;9.234;2023-05-02T08:39:48;18.20;99.90
40670;DHT22;26355;45.528;9.234;2023-05-02T08:42:14;18.30;99.90
40670;DHT22;26355;45.528;9.234;2023-05-02T08:44:40;18.30;99.90
40670;DHT22;26355;45.528;9.234;2023-05-02T08:47:05;18.30;99.90
40670;DHT22;26355;45.528;9.234;2023-05-02T08:49:34;18.30;99.90
40670;DHT22;26355;45.528;9.234;2023-05-02T08:52:01;18.40;99.90
40670;DHT22;26355;45.528;9.234;2023-05-02T08:54:28;18.30;99.90
40670;DHT22;26355;45.528;9.234;2023-05-02T08:56:53;18.30;99.90
40670;DHT22;26355;45.528;9.234;2023-05-02T08:59:19;18.30;99.90
40670;DHT22;26355;45.528;9.234;2023-05-02T09:01:48;18.30;99.90
40670;DHT22;26355;45.528;9.234;2023-05-02T09:04:13;18.30;99.90
40670;DHT22;26355;45.528;9.234;2023-05-02T09:06:39;18.30;99.90
40670;DHT22;26355;45.528;9.234;2023-05-02T09:09:05;18.30;99.90
40670;DHT22;26355;45.528;9.234;2023-05-02T09:11:31;18.40;99.90
40670;DHT22;26355;45.528;9.234;2023-05-02T09:13:57;18.30;99.90
40670;DHT22;26355;45.528;9.234;2023-05-02T09:16:28;18.30;99.90
40670;DHT22;26355;45.528;9.234;2023-05-02T09:18:55;18.30;99.90
40670;DHT22;26355;45.528;9.234;2023-05-02T09:21:23;18.30;99.90
40670;DHT22;26355;45.528;9.234;2023-05-02T09:23:53;18.30;99.90
40670;DHT22;26355;45.528;9.234;2023-05-02T09:26:21;18.30;99.90
40670;DHT22;26355;45.528;9.234;2023-05-02T09:28:54;18.40;99.90
40670;DHT22;26355;45.528;9.234;2023-05-02T09:31:22;18.40;99.90
40670;DHT22;26355;45.528;9.234;2023-05-02T09:33:50;18.40;99.90
40670;DHT22;26355;45.528;9.234;2023-05-02T09:36:18;18.50;99.90
40670;DHT22;26355;45.528;9.234;2023-05-02T09:38:46;18.50;99.90
40670;DHT22;26355;45.528;9.234;2023-05-02T09:41:12;18.60;99.90
40670;DHT22;26355;45.528;9.234;2023-05-02T09:43:39;18.70;99.90
40670;DHT22;26355;45.528;9.234;2023-05-02T09:46:07;18.60;99.90
40670;DHT22;26355;45.528;9.234;2023-05-02T09:48:53;18.70;99.90
40670;DHT22;26355;45.528;9.234;2023-05-02T09:51:20;18.80;99.90
40670;DHT22;26355;45.528;9.234;2023-05-02T09:53:46;18.90;99.90
40670;DHT22;26355;45.528;9.234;2023-05-02T09:56:12;19.00;99.90
40670;DHT22;26355;45.528;9.234;2023-05-02T09:58:38;19.10;99.90
40670;DHT22;26355;45.528;9.234;2023-05-02T10:01:04;19.10;99.90
40670;DHT22;26355;45.528;9.234;2023-05-02T10:03:30;19.30;99.90
40670;DHT22;26355;45.528;9.234;2023-05-02T10:05:57;19.30;99.90
40670;DHT22;26355;45.528;9.234;2023-05-02T10:08:25;19.40;99.90
40670;DHT22;26355;45.528;9.234;2023-05-02T10:10:56;19.50;99.90
40670;DHT22;26355;45.528;9.234;2023-05-02T10:13:26;19.60;99.90
40670;DHT22;26355;45.528;9.234;2023-05-02T10:16:03;19.80;99.90
40670;DHT22;26355;45.528;9.234;2023-05-02T10:19:00;20.00;99.90
40670;DHT22;26355;45.528;9.234;2023-05-02T10:21:27;20.10;99.90
40670;DHT22;26355;45.528;9.234;2023-05-02T10:23:54;20.20;99.90
40670;DHT22;26355;45.528;9.234;2023-05-02T10:26:20;20.40;99.90
40670;DHT22;26355;45.528;9.234;2023-05-02T10:28:47;20.50;99.90
40670;DHT22;26355;45.528;9.234;2023-05-02T10:31:14;20.40;99.90
40670;DHT22;26355;45.528;9.234;2023-05-02T10:33:40;20.60;99.90
40670;DHT22;26355;45.528;9.234;2023-05-02T10:36:07;20.60;99.90
40670;DHT22;26355;45.528;9.234;2023-05-02T10:38:35;20.60;99.90
40670;DHT22;26355;45.528;9.234;2023-05-02T10:41:05;20.70;99.90
40670;DHT22;26355;45.528;9.234;2023-05-02T10:43:34;20.70;99.90
40670;DHT22;26355;45.528;9.234;2023-05-02T10:46:00;20.80;99.90
40670;DHT22;26355;45.528;9.234;2023-05-02T10:48:28;20.70;99.90
40670;DHT22;26355;45.528;9.234;2023-05-02T10:50:56;20.60;99.90
40670;DHT22;26355;45.528;9.234;2023-05-02T10:56:15;20.40;99.90
40670;DHT22;26355;45.528;9.234;2023-05-02T10:58:46;20.40;99.90
40670;DHT22;26355;45.528;9.234;2023-05-02T11:03:59;20.30;99.90
40670;DHT22;26355;45.528;9.234;2023-05-02T11:06:25;20.30;99.90
40670;DHT22;26355;45.528;9.234;2023-05-02T11:08:52;20.40;99.90
40670;DHT22;26355;45.528;9.234;2023-05-02T11:11:50;20.40;99.90
40670;DHT22;26355;45.528;9.234;2023-05-02T11:24:53;20.80;99.90
40670;DHT22;26355;45.528;9.234;2023-05-02T11:29:55;20.80;99.90
40670;DHT22;26355;45.528;9.234;2023-05-02T11:32:21;20.80;99.90
40670;DHT22;26355;45.528;9.234;2023-05-02T11:34:50;20.80;99.90
40670;DHT22;26355;45.528;9.234;2023-05-02T11:37:18;20.80;99.90
40670;DHT22;26355;45.528;9.234;2023-05-02T11:39:43;20.70;99.90
40670;DHT22;26355;45.528;9.234;2023-05-02T11:42:30;20.70;99.90
40670;DHT22;26355;45.528;9.234;2023-05-02T11:44:59;20.70;99.90
40670;DHT22;26355;45.528;9.234;2023-05-02T11:47:26;20.70;99.90
40670;DHT22;26355;45.528;9.234;2023-05-02T11:49:54;20.70;99.90
40670;DHT22;26355;45.528;9.234;2023-05-02T11:52:21;20.80;99.90
40670;DHT22;26355;45.528;9.234;2023-05-02T11:54:47;20.90;99.90
40670;DHT22;26355;45.528;9.234;2023-05-02T11:57:13;21.00;99.90
40670;DHT22;26355;45.528;9.234;2023-05-02T11:59:52;21.10;99.90
40670;DHT22;26355;45.528;9.234;2023-05-02T12:02:18;21.20;99.90
40670;DHT22;26355;45.528;9.234;2023-05-02T12:04:45;21.20;99.90
40670;DHT22;26355;45.528;9.234;2023-05-02T12:07:11;21.20;99.90
40670;DHT22;26355;45.528;9.234;2023-05-02T12:09:50;21.20;99.90
40670;DHT22;26355;45.528;9.234;2023-05-02T12:12:20;21.30;99.90
40670;DHT22;26355;45.528;9.234;2023-05-02T12:14:46;21.40;99.90
40670;DHT22;26355;45.528;9.234;2023-05-02T12:17:12;21.50;99.90
40670;DHT22;26355;45.528;9.234;2023-05-02T12:19:38;21.50;99.90
40670;DHT22;26355;45.528;9.234;2023-05-02T12:22:04;21.50;99.90
40670;DHT22;26355;45.528;9.234;2023-05-02T12:24:32;21.60;99.90
40670;DHT22;26355;45.528;9.234;2023-05-02T12:27:11;21.70;99.90
40670;DHT22;26355;45.528;9.234;2023-05-02T12:29:41;21.70;99.90
40670;DHT22;26355;45.528;9.234;2023-05-02T12:32:07;21.80;99.90
40670;DHT22;26355;45.528;9.234;2023-05-02T12:34:37;21.80;99.90
40670;DHT22;26355;45.528;9.234;2023-05-02T12:37:03;21.90;99.90
40670;DHT22;26355;45.528;9.234;2023-05-02T12:39:37;21.80;99.90
40670;DHT22;26355;45.528;9.234;2023-05-02T12:44:37;21.70;99.90
40670;DHT22;26355;45.528;9.234;2023-05-02T12:47:06;21.70;99.90
40670;DHT22;26355;45.528;9.234;2023-05-02T12:49:32;21.80;99.90
40670;DHT22;26355;45.528;9.234;2023-05-02T12:52:12;21.80;99.90
40670;DHT22;26355;45.528;9.234;2023-05-02T12:54:37;21.70;99.90
40670;DHT22;26355;45.528;9.234;2023-05-02T12:57:03;21.80;99.90
40670;DHT22;26355;45.528;9.234;2023-05-02T12:59:30;21.90;99.90
40670;DHT22;26355;45.528;9.234;2023-05-02T13:01:57;21.80;99.90
40670;DHT22;26355;45.528;9.234;2023-05-02T13:04:36;21.60;99.90
40670;DHT22;26355;45.528;9.234;2023-05-02T13:07:04;21.60;99.90
40670;DHT22;26355;45.528;9.234;2023-05-02T13:09:30;21.60;99.90
40670;DHT22;26355;45.528;9.234;2023-05-02T13:11:56;21.80;99.90
40670;DHT22;26355;45.528;9.234;2023-05-02T13:14:23;21.50;99.90
40670;DHT22;26355;45.528;9.234;2023-05-02T13:16:49;21.70;99.90
40670;DHT22;26355;45.528;9.234;2023-05-02T13:19:18;21.80;99.90
40670;DHT22;26355;45.528;9.234;2023-05-02T13:21:43;21.70;99.90
40670;DHT22;26355;45.528;9.234;2023-05-02T13:24:09;21.70;99.90
40670;DHT22;26355;45.528;9.234;2023-05-02T13:26:35;21.80;99.90
40670;DHT22;26355;45.528;9.234;2023-05-02T13:29:00;21.80;99.90
40670;DHT22;26355;45.528;9.234;2023-05-02T13:31:26;21.70;99.90
40670;DHT22;26355;45.528;9.234;2023-05-02T13:33:51;21.40;99.90
40670;DHT22;26355;45.528;9.234;2023-05-02T13:36:17;21.40;99.90
40670;DHT22;26355;45.528;9.234;2023-05-02T13:38:43;21.30;99.90
40670;DHT22;26355;45.528;9.234;2023-05-02T13:41:09;21.40;99.90
40670;DHT22;26355;45.528;9.234;2023-05-02T13:43:34;21.50;99.90
40670;DHT22;26355;45.528;9.234;2023-05-02T13:46:00;21.50;99.90
40670;DHT22;26355;45.528;9.234;2023-05-02T13:48:25;21.60;99.90
40670;DHT22;26355;45.528;9.234;2023-05-02T13:50:51;21.40;99.90
40670;DHT22;26355;45.528;9.234;2023-05-02T13:53:16;21.30;99.90
40670;DHT22;26355;45.528;9.234;2023-05-02T13:55:42;21.40;99.90
40670;DHT22;26355;45.528;9.234;2023-05-02T13:58:08;21.50;99.90
40670;DHT22;26355;45.528;9.234;2023-05-02T14:00:33;21.70;99.90
40670;DHT22;26355;45.528;9.234;2023-05-02T14:02:59;21.40;99.90
40670;DHT22;26355;45.528;9.234;2023-05-02T14:05:24;21.40;99.90
40670;DHT22;26355;45.528;9.234;2023-05-02T14:07:50;21.10;99.90
40670;DHT22;26355;45.528;9.234;2023-05-02T14:10:16;21.20;99.90
40670;DHT22;26355;45.528;9.234;2023-05-02T14:12:41;21.30;99.90
40670;DHT22;26355;45.528;9.234;2023-05-02T14:15:07;21.20;99.90
40670;DHT22;26355;45.528;9.234;2023-05-02T14:17:33;21.30;99.90
40670;DHT22;26355;45.528;9.234;2023-05-02T14:19:59;21.20;99.90
40670;DHT22;26355;45.528;9.234;2023-05-02T14:22:24;21.00;99.90
40670;DHT22;26355;45.528;9.234;2023-05-02T14:24:50;21.10;99.90
40670;DHT22;26355;45.528;9.234;2023-05-02T14:27:15;21.10;99.90
40670;DHT22;26355;45.528;9.234;2023-05-02T14:29:45;21.20;99.90
40670;DHT22;26355;45.528;9.234;2023-05-02T14:32:12;21.30;99.90
40670;DHT22;26355;45.528;9.234;2023-05-02T14:34:38;21.50;99.90
40670;DHT22;26355;45.528;9.234;2023-05-02T14:37:04;21.50;99.90
40670;DHT22;26355;45.528;9.234;2023-05-02T14:39:30;21.20;99.90
40670;DHT22;26355;45.528;9.234;2023-05-02T14:41:55;21.10;99.90
40670;DHT22;26355;45.528;9.234;2023-05-02T14:44:21;21.20;99.90
40670;DHT22;26355;45.528;9.234;2023-05-02T14:46:46;21.30;99.90
40670;DHT22;26355;45.528;9.234;2023-05-02T14:49:12;21.20;99.90
40670;DHT22;26355;45.528;9.234;2023-05-02T14:51:38;21.30;99.90
40670;DHT22;26355;45.528;9.234;2023-05-02T14:54:04;21.30;99.90
40670;DHT22;26355;45.528;9.234;2023-05-02T14:56:33;21.10;99.90
40670;DHT22;26355;45.528;9.234;2023-05-02T14:58:59;21.10;99.90
40670;DHT22;26355;45.528;9.234;2023-05-02T15:01:25;21.20;99.90
40670;DHT22;26355;45.528;9.234;2023-05-02T15:03:50;21.30;99.90
40670;DHT22;26355;45.528;9.234;2023-05-02T15:06:17;21.30;99.90
40670;DHT22;26355;45.528;9.234;2023-05-02T15:08:42;21.20;99.90
40670;DHT22;26355;45.528;9.234;2023-05-02T15:11:09;21.10;99.90
40670;DHT22;26355;45.528;9.234;2023-05-02T15:13:35;20.90;99.90
40670;DHT22;26355;45.528;9.234;2023-05-02T15:16:02;20.80;99.90
40670;DHT22;26355;45.528;9.234;2023-05-02T15:18:28;20.80;99.90
40670;DHT22;26355;45.528;9.234;2023-05-02T15:20:53;20.90;99.90
40670;DHT22;26355;45.528;9.234;2023-05-02T15:23:19;20.80;99.90
40670;DHT22;26355;45.528;9.234;2023-05-02T15:25:44;20.90;99.90
40670;DHT22;26355;45.528;9.234;2023-05-02T15:28:10;20.90;99.90
40670;DHT22;26355;45.528;9.234;2023-05-02T15:30:35;20.90;99.90
40670;DHT22;26355;45.528;9.234;2023-05-02T15:33:01;21.00;99.90
40670;DHT22;26355;45.528;9.234;2023-05-02T15:35:27;21.00;99.90
40670;DHT22;26355;45.528;9.234;2023-05-02T15:37:54;20.90;99.90
40670;DHT22;26355;45.528;9.234;2023-05-02T15:40:19;20.90;99.90
40670;DHT22;26355;45.528;9.234;2023-05-02T15:42:45;20.90;99.90
40670;DHT22;26355;45.528;9.234;2023-05-02T15:45:11;20.90;99.90
40670;DHT22;26355;45.528;9.234;2023-05-02T15:47:40;20.90;99.90
40670;DHT22;26355;45.528;9.234;2023-05-02T15:50:06;20.70;99.90
40670;DHT22;26355;45.528;9.234;2023-05-02T15:52:32;20.80;99.90
40670;DHT22;26355;45.528;9.234;2023-05-02T15:54:58;20.80;99.90
40670;DHT22;26355;45.528;9.234;2023-05-02T15:57:25;20.70;99.90
40670;DHT22;26355;45.528;9.234;2023-05-02T15:59:51;20.70;99.90
40670;DHT22;26355;45.528;9.234;2023-05-02T16:02:17;20.70;99.90
40670;DHT22;26355;45.528;9.234;2023-05-02T16:04:43;20.80;99.90
40670;DHT22;26355;45.528;9.234;2023-05-02T16:07:09;20.80;99.90